createdAt,value
2019-01-15T00:00:59.214Z,974.71
2019-01-15T00:01:59.347Z,974.72
2019-01-15T00:02:59.282Z,974.72
2019-01-15T00:03:59.325Z,974.73
2019-01-15T00:04:59.357Z,974.70
2019-01-15T00:05:59.820Z,974.70
2019-01-15T00:06:59.446Z,974.72
2019-01-15T00:07:59.483Z,974.75
2019-01-15T00:08:59.636Z,974.76
2019-01-15T00:09:59.553Z,974.77
2019-01-15T00:10:59.619Z,974.80
2019-01-15T00:11:59.635Z,974.79
2019-01-15T00:12:59.673Z,974.82
2019-01-15T00:14:00.326Z,974.83
2019-01-15T00:14:59.754Z,974.85
2019-01-15T00:15:59.812Z,974.80
2019-01-15T00:16:59.833Z,974.82
2019-01-15T00:17:59.879Z,974.87
2019-01-15T00:18:59.913Z,974.83
2019-01-15T00:19:59.955Z,974.88
2019-01-15T00:21:00.032Z,974.90
2019-01-15T00:22:00.067Z,974.87
2019-01-15T00:23:00.071Z,974.86
2019-01-15T00:24:00.127Z,974.84
2019-01-15T00:25:00.176Z,974.80
2019-01-15T00:26:00.221Z,974.84
2019-01-15T00:27:00.248Z,974.85
2019-01-15T00:28:00.272Z,974.82
2019-01-15T00:29:00.315Z,974.83
2019-01-15T00:30:00.356Z,974.84
2019-01-15T00:31:00.414Z,974.89
2019-01-15T00:32:00.430Z,974.87
2019-01-15T00:33:00.477Z,974.88
2019-01-15T00:34:00.514Z,974.87
2019-01-15T00:35:00.559Z,974.91
2019-01-15T00:36:00.618Z,974.90
2019-01-15T00:37:00.628Z,974.93
2019-01-15T00:38:00.668Z,974.90
2019-01-15T00:39:00.710Z,974.95
2019-01-15T00:40:00.756Z,974.91
2019-01-15T00:41:00.805Z,974.94
2019-01-15T00:42:00.832Z,974.93
2019-01-15T00:43:00.909Z,974.97
2019-01-15T00:44:01.355Z,975.00
2019-01-15T00:45:00.947Z,975.02
2019-01-15T00:46:00.990Z,975.01
2019-01-15T00:47:01.047Z,975.07
2019-01-15T00:48:01.070Z,975.08
2019-01-15T00:49:01.106Z,975.08
2019-01-15T00:50:01.208Z,975.12
2019-01-15T00:51:01.193Z,975.14
2019-01-15T00:52:01.252Z,975.16
2019-01-15T00:53:01.278Z,975.17
2019-01-15T00:54:01.306Z,975.19
2019-01-15T00:55:01.346Z,975.22
2019-01-15T00:56:01.392Z,975.22
2019-01-15T00:57:01.454Z,975.25
2019-01-15T00:58:01.490Z,975.31
2019-01-15T00:59:01.509Z,975.30
2019-01-15T01:00:01.546Z,975.32
2019-01-15T01:01:01.588Z,975.32
2019-01-15T01:02:01.625Z,975.30
2019-01-15T01:03:01.704Z,975.34
2019-01-15T01:04:02.321Z,975.33
2019-01-15T01:05:02.297Z,975.38
2019-01-15T01:06:01.792Z,975.38
2019-01-15T01:07:01.830Z,975.42
2019-01-15T01:08:01.896Z,975.40
2019-01-15T01:09:01.907Z,975.45
2019-01-15T01:10:01.947Z,975.50
2019-01-15T01:11:01.990Z,975.54
2019-01-15T01:12:02.027Z,975.54
2019-01-15T01:13:02.089Z,975.60
2019-01-15T01:14:02.106Z,975.61
2019-01-15T01:15:02.147Z,975.63
2019-01-15T01:16:02.197Z,975.60
2019-01-15T01:17:02.226Z,975.61
2019-01-15T01:18:02.292Z,975.63
2019-01-15T01:19:02.330Z,975.62
2019-01-15T01:20:03.296Z,975.62
2019-01-15T01:21:02.399Z,975.64
2019-01-15T01:22:02.428Z,975.60
2019-01-15T01:23:02.467Z,975.59
2019-01-15T01:24:02.536Z,975.59
2019-01-15T01:25:02.557Z,975.61
2019-01-15T01:26:02.592Z,975.60
2019-01-15T01:27:03.327Z,975.63
2019-01-15T01:28:02.665Z,975.63
2019-01-15T01:29:02.729Z,975.69
2019-01-15T01:30:02.759Z,975.70
2019-01-15T01:31:02.798Z,975.69
2019-01-15T01:32:02.824Z,975.69
2019-01-15T01:33:02.865Z,975.71
2019-01-15T01:34:02.925Z,975.72
2019-01-15T01:35:02.953Z,975.73
2019-01-15T01:36:02.986Z,975.75
2019-01-15T01:37:03.042Z,975.71
2019-01-15T01:38:03.066Z,975.75
2019-01-15T01:39:03.134Z,975.75
2019-01-15T01:40:03.142Z,975.77
2019-01-15T01:41:03.190Z,975.78
2019-01-15T01:42:03.222Z,975.79
2019-01-15T01:43:03.270Z,975.85
2019-01-15T01:44:03.329Z,975.91
2019-01-15T01:45:03.373Z,975.88
2019-01-15T01:46:04.295Z,975.91
2019-01-15T01:47:03.425Z,975.92
2019-01-15T01:48:03.463Z,975.93
2019-01-15T01:49:03.504Z,975.93
2019-01-15T01:50:04.295Z,975.92
2019-01-15T01:51:03.586Z,975.97
2019-01-15T01:52:03.631Z,975.99
2019-01-15T01:53:03.664Z,975.97
2019-01-15T01:54:03.784Z,975.96
2019-01-15T01:55:04.597Z,975.99
2019-01-15T01:56:03.788Z,976.02
2019-01-15T01:57:03.821Z,976.00
2019-01-15T01:58:03.861Z,976.05
2019-01-15T01:59:03.910Z,976.05
2019-01-15T02:00:03.964Z,976.05
2019-01-15T02:01:03.999Z,976.05
2019-01-15T02:02:04.022Z,976.06
2019-01-15T02:03:04.062Z,976.07
2019-01-15T02:04:04.101Z,976.03
2019-01-15T02:05:04.159Z,976.02
2019-01-15T02:06:04.795Z,976.06
2019-01-15T02:07:04.221Z,976.05
2019-01-15T02:08:04.795Z,976.02
2019-01-15T02:09:04.298Z,976.05
2019-01-15T02:10:04.343Z,976.03
2019-01-15T02:11:04.414Z,975.99
2019-01-15T02:12:04.419Z,976.01
2019-01-15T02:13:04.468Z,975.99
2019-01-15T02:14:04.498Z,976.01
2019-01-15T02:15:04.549Z,976.00
2019-01-15T02:16:05.332Z,976.02
2019-01-15T02:17:05.293Z,976.09
2019-01-15T02:18:04.666Z,976.11
2019-01-15T02:19:05.293Z,976.13
2019-01-15T02:20:05.598Z,976.15
2019-01-15T02:21:04.797Z,976.13
2019-01-15T02:22:04.831Z,976.18
2019-01-15T02:23:04.862Z,976.16
2019-01-15T02:24:04.907Z,976.21
2019-01-15T02:25:04.939Z,976.16
2019-01-15T02:26:04.979Z,976.25
2019-01-15T02:27:05.042Z,976.30
2019-01-15T02:28:05.061Z,976.30
2019-01-15T02:29:05.106Z,976.32
2019-01-15T02:30:05.148Z,976.31
2019-01-15T02:31:05.179Z,976.32
2019-01-15T02:32:05.793Z,976.27
2019-01-15T02:33:05.260Z,976.30
2019-01-15T02:34:05.302Z,976.27
2019-01-15T02:35:06.794Z,976.28
2019-01-15T02:36:05.792Z,976.26
2019-01-15T02:37:05.444Z,976.32
2019-01-15T02:38:05.546Z,976.41
2019-01-15T02:39:05.510Z,976.40
2019-01-15T02:40:05.543Z,976.38
2019-01-15T02:41:05.579Z,976.40
2019-01-15T02:42:05.645Z,976.40
2019-01-15T02:43:05.696Z,976.43
2019-01-15T02:44:05.714Z,976.50
2019-01-15T02:45:05.739Z,976.42
2019-01-15T02:46:05.776Z,976.40
2019-01-15T02:47:05.842Z,976.43
2019-01-15T02:48:05.862Z,976.37
2019-01-15T02:49:05.900Z,976.40
2019-01-15T02:50:05.946Z,976.38
2019-01-15T02:51:05.980Z,976.39
2019-01-15T02:52:06.049Z,976.42
2019-01-15T02:53:06.087Z,976.42
2019-01-15T02:54:06.096Z,976.39
2019-01-15T02:55:06.147Z,976.36
2019-01-15T02:56:06.186Z,976.32
2019-01-15T02:57:06.222Z,976.30
2019-01-15T02:58:06.278Z,976.29
2019-01-15T02:59:06.312Z,976.29
2019-01-15T03:00:06.338Z,976.24
2019-01-15T03:01:06.376Z,976.24
2019-01-15T03:02:06.452Z,976.24
2019-01-15T03:03:06.476Z,976.25
2019-01-15T03:04:06.498Z,976.25
2019-01-15T03:05:06.537Z,976.32
2019-01-15T03:06:06.577Z,976.33
2019-01-15T03:07:06.620Z,976.32
2019-01-15T03:08:06.673Z,976.38
2019-01-15T03:09:06.698Z,976.36
2019-01-15T03:10:06.739Z,976.34
2019-01-15T03:11:06.774Z,976.31
2019-01-15T03:12:06.820Z,976.30
2019-01-15T03:13:06.876Z,976.30
2019-01-15T03:14:06.943Z,976.29
2019-01-15T03:15:06.938Z,976.33
2019-01-15T03:16:07.044Z,976.30
2019-01-15T03:17:07.017Z,976.36
2019-01-15T03:18:07.056Z,976.31
2019-01-15T03:19:07.114Z,976.31
2019-01-15T03:20:07.139Z,976.32
2019-01-15T03:21:07.177Z,976.37
2019-01-15T03:22:07.225Z,976.34
2019-01-15T03:23:07.797Z,976.37
2019-01-15T03:24:07.333Z,976.38
2019-01-15T03:25:07.826Z,976.40
2019-01-15T03:26:07.791Z,976.36
2019-01-15T03:27:07.416Z,976.37
2019-01-15T03:28:08.290Z,976.41
2019-01-15T03:29:07.521Z,976.38
2019-01-15T03:30:07.634Z,976.39
2019-01-15T03:31:07.580Z,976.36
2019-01-15T03:32:07.620Z,976.37
2019-01-15T03:33:07.665Z,976.41
2019-01-15T03:34:09.289Z,976.40
2019-01-15T03:35:07.734Z,976.43
2019-01-15T03:36:07.798Z,976.42
2019-01-15T03:37:10.592Z,976.44
2019-01-15T03:38:07.895Z,976.45
2019-01-15T03:39:07.919Z,976.47
2019-01-15T03:40:07.956Z,976.43
2019-01-15T03:41:07.975Z,976.42
2019-01-15T03:42:08.017Z,976.46
2019-01-15T03:43:08.055Z,976.50
2019-01-15T03:44:08.122Z,976.50
2019-01-15T03:45:08.149Z,976.49
2019-01-15T03:46:08.179Z,976.47
2019-01-15T03:47:08.217Z,976.47
2019-01-15T03:48:08.796Z,976.47
2019-01-15T03:49:08.312Z,976.47
2019-01-15T03:50:08.366Z,976.52
2019-01-15T03:51:08.375Z,976.51
2019-01-15T03:52:08.424Z,976.49
2019-01-15T03:53:08.459Z,976.53
2019-01-15T03:54:08.491Z,976.45
2019-01-15T03:55:08.565Z,976.45
2019-01-15T03:56:08.573Z,976.47
2019-01-15T03:57:08.609Z,976.46
2019-01-15T03:58:09.315Z,976.46
2019-01-15T03:59:08.694Z,976.45
2019-01-15T04:00:08.758Z,976.49
2019-01-15T04:01:08.770Z,976.51
2019-01-15T04:02:08.810Z,976.53
2019-01-15T04:03:08.854Z,976.52
2019-01-15T04:04:08.891Z,976.49
2019-01-15T04:05:08.959Z,976.53
2019-01-15T04:06:08.967Z,976.55
2019-01-15T04:07:09.011Z,976.57
2019-01-15T04:08:09.823Z,976.53
2019-01-15T04:09:09.091Z,976.51
2019-01-15T04:10:09.156Z,976.51
2019-01-15T04:11:09.168Z,976.50
2019-01-15T04:12:09.208Z,976.47
2019-01-15T04:13:11.535Z,976.54
2019-01-15T04:14:09.288Z,976.58
2019-01-15T04:15:09.363Z,976.60
2019-01-15T04:16:09.371Z,976.61
2019-01-15T04:17:09.407Z,976.58
2019-01-15T04:18:09.446Z,976.60
2019-01-15T04:19:09.490Z,976.61
2019-01-15T04:20:09.561Z,976.68
2019-01-15T04:21:09.566Z,976.67
2019-01-15T04:22:09.606Z,976.73
2019-01-15T04:23:09.648Z,976.73
2019-01-15T04:24:09.687Z,976.74
2019-01-15T04:25:09.762Z,976.74
2019-01-15T04:26:09.787Z,976.75
2019-01-15T04:27:09.809Z,976.80
2019-01-15T04:28:09.856Z,976.82
2019-01-15T04:29:09.905Z,976.90
2019-01-15T04:30:09.926Z,976.93
2019-01-15T04:31:09.991Z,976.93
2019-01-15T04:32:10.021Z,976.96
2019-01-15T04:33:10.044Z,976.96
2019-01-15T04:34:10.099Z,976.91
2019-01-15T04:35:10.124Z,976.90
2019-01-15T04:36:10.195Z,976.88
2019-01-15T04:37:10.201Z,976.88
2019-01-15T04:38:10.244Z,976.92
2019-01-15T04:39:10.281Z,976.88
2019-01-15T04:40:10.325Z,976.88
2019-01-15T04:41:10.396Z,976.84
2019-01-15T04:42:10.410Z,976.82
2019-01-15T04:43:10.440Z,976.81
2019-01-15T04:44:10.485Z,976.80
2019-01-15T04:45:11.289Z,976.77
2019-01-15T04:46:10.586Z,976.73
2019-01-15T04:47:10.683Z,976.69
2019-01-15T04:48:10.648Z,976.69
2019-01-15T04:49:10.680Z,976.72
2019-01-15T04:50:10.728Z,976.74
2019-01-15T04:51:10.762Z,976.76
2019-01-15T04:52:10.822Z,976.74
2019-01-15T04:53:10.844Z,976.76
2019-01-15T04:54:11.786Z,976.71
2019-01-15T04:55:10.924Z,976.71
2019-01-15T04:56:10.956Z,976.73
2019-01-15T04:57:11.025Z,976.70
2019-01-15T04:58:11.037Z,976.74
2019-01-15T04:59:11.087Z,976.75
2019-01-15T05:00:11.115Z,976.73
2019-01-15T05:01:11.219Z,976.75
2019-01-15T05:02:11.223Z,976.72
2019-01-15T05:03:11.278Z,976.73
2019-01-15T05:04:11.284Z,976.71
2019-01-15T05:05:11.324Z,976.70
2019-01-15T05:06:11.364Z,976.71
2019-01-15T05:07:11.392Z,976.74
2019-01-15T05:08:12.307Z,976.78
2019-01-15T05:09:11.474Z,976.76
2019-01-15T05:10:11.547Z,976.84
2019-01-15T05:11:11.554Z,976.87
2019-01-15T05:12:11.595Z,976.90
2019-01-15T05:13:11.657Z,976.96
2019-01-15T05:14:11.676Z,976.97
2019-01-15T05:15:13.041Z,977.00
2019-01-15T05:16:11.755Z,976.97
2019-01-15T05:17:11.792Z,976.95
2019-01-15T05:18:11.854Z,976.91
2019-01-15T05:19:11.871Z,976.86
2019-01-15T05:20:11.914Z,976.86
2019-01-15T05:21:11.962Z,976.89
2019-01-15T05:22:12.022Z,976.90
2019-01-15T05:23:12.055Z,976.94
2019-01-15T05:24:12.076Z,976.98
2019-01-15T05:25:12.114Z,976.94
2019-01-15T05:26:12.150Z,976.93
2019-01-15T05:27:12.199Z,976.91
2019-01-15T05:28:12.250Z,976.94
2019-01-15T05:29:12.272Z,976.94
2019-01-15T05:30:12.313Z,976.91
2019-01-15T05:31:12.352Z,976.91
2019-01-15T05:32:12.387Z,976.90
2019-01-15T05:33:12.456Z,976.91
2019-01-15T05:34:12.471Z,976.81
2019-01-15T05:35:12.509Z,976.87
2019-01-15T05:36:12.618Z,976.78
2019-01-15T05:37:12.586Z,976.83
2019-01-15T05:38:12.647Z,976.82
2019-01-15T05:39:13.283Z,976.80
2019-01-15T05:40:12.712Z,976.80
2019-01-15T05:41:12.745Z,976.77
2019-01-15T05:42:13.309Z,976.76
2019-01-15T05:43:12.853Z,976.80
2019-01-15T05:44:12.867Z,976.80
2019-01-15T05:45:14.783Z,976.80
2019-01-15T05:46:12.943Z,976.78
2019-01-15T05:47:12.985Z,976.81
2019-01-15T05:48:13.049Z,976.78
2019-01-15T05:49:13.081Z,976.81
2019-01-15T05:50:13.804Z,976.79
2019-01-15T05:51:13.153Z,976.78
2019-01-15T05:52:13.183Z,976.75
2019-01-15T05:53:13.224Z,976.71
2019-01-15T05:54:13.290Z,976.74
2019-01-15T05:55:13.307Z,976.79
2019-01-15T05:56:13.359Z,976.78
2019-01-15T05:57:14.283Z,976.78
2019-01-15T05:58:15.282Z,976.82
2019-01-15T05:59:13.506Z,976.88
2019-01-15T06:00:13.503Z,976.85
2019-01-15T06:01:13.562Z,976.84
2019-01-15T06:02:13.583Z,976.82
2019-01-15T06:03:14.304Z,976.80
2019-01-15T06:04:13.684Z,976.83
2019-01-15T06:05:13.709Z,976.85
2019-01-15T06:06:13.833Z,976.86
2019-01-15T06:07:13.786Z,976.87
2019-01-15T06:08:14.283Z,976.90
2019-01-15T06:09:13.880Z,976.91
2019-01-15T06:10:13.901Z,976.88
2019-01-15T06:11:13.971Z,976.87
2019-01-15T06:12:13.983Z,976.87
2019-01-15T06:13:14.055Z,976.90
2019-01-15T06:14:14.064Z,976.90
2019-01-15T06:15:14.132Z,976.92
2019-01-15T06:16:14.144Z,976.91
2019-01-15T06:17:14.782Z,976.86
2019-01-15T06:18:14.221Z,976.89
2019-01-15T06:19:14.260Z,976.87
2019-01-15T06:20:14.614Z,976.85
2019-01-15T06:21:14.369Z,976.85
2019-01-15T06:22:14.381Z,976.83
2019-01-15T06:23:14.423Z,976.83
2019-01-15T06:24:14.460Z,976.80
2019-01-15T06:25:14.521Z,976.81
2019-01-15T06:26:14.583Z,976.81
2019-01-15T06:27:14.583Z,976.81
2019-01-15T06:28:14.620Z,976.78
2019-01-15T06:29:14.660Z,976.79
2019-01-15T06:30:14.700Z,976.75
2019-01-15T06:31:14.763Z,976.78
2019-01-15T06:32:14.780Z,976.78
2019-01-15T06:33:14.821Z,976.75
2019-01-15T06:34:14.965Z,976.77
2019-01-15T06:35:14.906Z,976.76
2019-01-15T06:36:14.966Z,976.73
2019-01-15T06:37:15.816Z,976.74
2019-01-15T06:38:15.020Z,976.72
2019-01-15T06:39:15.064Z,976.73
2019-01-15T06:40:15.103Z,976.71
2019-01-15T06:41:15.182Z,976.68
2019-01-15T06:42:15.212Z,976.62
2019-01-15T06:43:15.235Z,976.62
2019-01-15T06:44:15.262Z,976.59
2019-01-15T06:45:15.305Z,976.65
2019-01-15T06:46:15.350Z,976.67
2019-01-15T06:47:15.404Z,976.74
2019-01-15T06:48:17.019Z,976.71
2019-01-15T06:49:15.462Z,976.72
2019-01-15T06:50:15.503Z,976.73
2019-01-15T06:51:15.567Z,976.75
2019-01-15T06:52:15.632Z,976.78
2019-01-15T06:53:15.626Z,976.81
2019-01-15T06:54:15.663Z,976.81
2019-01-15T06:55:15.717Z,976.89
2019-01-15T06:56:15.752Z,976.87
2019-01-15T06:57:16.309Z,976.89
2019-01-15T06:58:16.280Z,976.91
2019-01-15T06:59:15.866Z,976.89
2019-01-15T07:00:15.907Z,976.93
2019-01-15T07:01:15.946Z,976.95
2019-01-15T07:02:16.779Z,976.98
2019-01-15T07:03:16.028Z,977.03
2019-01-15T07:04:16.069Z,977.07
2019-01-15T07:05:16.109Z,977.07
2019-01-15T07:06:16.148Z,977.13
2019-01-15T07:07:16.207Z,977.13
2019-01-15T07:08:16.246Z,977.11
2019-01-15T07:09:16.811Z,977.14
2019-01-15T07:10:16.308Z,977.19
2019-01-15T07:11:16.357Z,977.15
2019-01-15T07:12:16.410Z,977.15
2019-01-15T07:13:16.448Z,977.17
2019-01-15T07:14:17.279Z,977.20
2019-01-15T07:15:17.279Z,977.15
2019-01-15T07:16:16.552Z,977.16
2019-01-15T07:17:16.591Z,977.18
2019-01-15T07:18:16.654Z,977.15
2019-01-15T07:19:16.669Z,977.21
2019-01-15T07:20:16.712Z,977.22
2019-01-15T07:21:16.766Z,977.17
2019-01-15T07:22:16.810Z,977.17
2019-01-15T07:23:16.881Z,977.15
2019-01-15T07:24:16.874Z,977.13
2019-01-15T07:25:16.915Z,977.11
2019-01-15T07:26:17.779Z,977.11
2019-01-15T07:27:17.778Z,977.17
2019-01-15T07:28:18.279Z,977.17
2019-01-15T07:29:19.778Z,977.13
2019-01-15T07:30:17.112Z,977.14
2019-01-15T07:31:17.152Z,977.15
2019-01-15T07:32:17.202Z,977.15
2019-01-15T07:33:17.780Z,977.17
2019-01-15T07:34:17.330Z,977.14
2019-01-15T07:35:17.336Z,977.12
2019-01-15T07:36:17.779Z,977.11
2019-01-15T07:37:17.402Z,977.09
2019-01-15T07:38:17.462Z,977.05
2019-01-15T07:39:18.278Z,977.10
2019-01-15T07:40:17.513Z,977.10
2019-01-15T07:41:18.778Z,977.10
2019-01-15T07:42:18.286Z,977.07
2019-01-15T07:43:19.278Z,977.08
2019-01-15T07:44:18.278Z,977.07
2019-01-15T07:45:17.724Z,977.09
2019-01-15T07:46:18.584Z,977.08
2019-01-15T07:47:17.792Z,977.13
2019-01-15T07:48:17.832Z,977.10
2019-01-15T07:49:18.781Z,977.08
2019-01-15T07:50:19.778Z,977.05
2019-01-15T07:51:17.948Z,977.07
2019-01-15T07:52:18.000Z,977.07
2019-01-15T07:53:18.039Z,977.14
2019-01-15T07:54:20.780Z,977.13
2019-01-15T07:55:18.109Z,977.14
2019-01-15T07:56:19.278Z,977.09
2019-01-15T07:57:18.191Z,977.07
2019-01-15T07:58:18.289Z,977.08
2019-01-15T07:59:18.305Z,977.12
2019-01-15T08:00:18.347Z,977.10
2019-01-15T08:01:18.354Z,977.12
2019-01-15T08:02:18.390Z,977.12
2019-01-15T08:03:18.431Z,977.12
2019-01-15T08:04:18.491Z,977.10
2019-01-15T08:05:18.527Z,977.07
2019-01-15T08:06:18.577Z,977.08
2019-01-15T08:07:18.601Z,977.12
2019-01-15T08:08:18.643Z,977.13
2019-01-15T08:09:18.670Z,977.05
2019-01-15T08:10:18.731Z,977.06
2019-01-15T08:11:18.773Z,977.07
2019-01-15T08:12:19.278Z,977.12
2019-01-15T08:13:18.837Z,977.06
2019-01-15T08:14:18.877Z,977.06
2019-01-15T08:15:18.948Z,977.04
2019-01-15T08:16:18.972Z,977.04
2019-01-15T08:17:18.991Z,977.05
2019-01-15T08:18:19.033Z,977.06
2019-01-15T08:19:19.132Z,977.11
2019-01-15T08:20:19.119Z,977.09
2019-01-15T08:21:19.174Z,977.10
2019-01-15T08:22:19.194Z,977.09
2019-01-15T08:23:19.231Z,977.09
2019-01-15T08:24:19.280Z,977.05
2019-01-15T08:25:19.310Z,977.02
2019-01-15T08:26:19.395Z,977.03
2019-01-15T08:27:19.394Z,977.04
2019-01-15T08:28:19.433Z,977.02
2019-01-15T08:29:19.471Z,977.03
2019-01-15T08:30:19.524Z,976.99
2019-01-15T08:31:19.574Z,977.00
2019-01-15T08:32:19.593Z,977.01
2019-01-15T08:33:19.689Z,977.05
2019-01-15T08:34:19.693Z,977.02
2019-01-15T08:35:19.738Z,977.07
2019-01-15T08:36:19.783Z,977.03
2019-01-15T08:37:19.795Z,977.02
2019-01-15T08:38:19.835Z,977.03
2019-01-15T08:39:19.884Z,977.05
2019-01-15T08:40:19.930Z,977.05
2019-01-15T08:41:19.982Z,977.04
2019-01-15T08:42:19.999Z,977.01
2019-01-15T08:43:20.053Z,977.00
2019-01-15T08:44:20.784Z,977.01
2019-01-15T08:45:20.124Z,977.00
2019-01-15T08:46:20.622Z,977.00
2019-01-15T08:47:20.215Z,976.97
2019-01-15T08:48:20.271Z,976.95
2019-01-15T08:49:20.277Z,976.98
2019-01-15T08:50:20.328Z,976.99
2019-01-15T08:51:20.361Z,976.96
2019-01-15T08:52:20.411Z,976.95
2019-01-15T08:53:20.461Z,976.95
2019-01-15T08:54:20.485Z,976.95
2019-01-15T08:55:20.523Z,976.94
2019-01-15T08:56:20.565Z,976.93
2019-01-15T08:57:20.629Z,976.96
2019-01-15T08:58:20.651Z,976.92
2019-01-15T08:59:20.721Z,976.95
2019-01-15T09:00:20.728Z,976.97
2019-01-15T09:01:20.770Z,976.92
2019-01-15T09:02:20.809Z,976.93
2019-01-15T09:03:20.881Z,976.92
2019-01-15T09:04:20.896Z,976.94
2019-01-15T09:05:20.941Z,976.91
2019-01-15T09:06:20.979Z,976.96
2019-01-15T09:07:21.011Z,976.97
2019-01-15T09:08:21.106Z,976.93
2019-01-15T09:09:21.095Z,976.98
2019-01-15T09:10:21.153Z,976.95
2019-01-15T09:11:21.222Z,976.94
2019-01-15T09:12:21.219Z,976.90
2019-01-15T09:13:21.300Z,976.91
2019-01-15T09:14:26.789Z,976.90
2019-01-15T09:15:21.380Z,976.90
2019-01-15T09:16:21.391Z,976.84
2019-01-15T09:17:21.429Z,976.82
2019-01-15T09:18:22.283Z,976.84
2019-01-15T09:19:21.512Z,976.82
2019-01-15T09:20:21.549Z,976.85
2019-01-15T09:21:22.589Z,976.87
2019-01-15T09:22:21.629Z,976.90
2019-01-15T09:23:21.692Z,976.89
2019-01-15T09:24:21.734Z,976.86
2019-01-15T09:25:21.758Z,976.86
2019-01-15T09:26:21.802Z,976.88
2019-01-15T09:27:21.846Z,976.85
2019-01-15T09:28:21.882Z,976.85
2019-01-15T09:29:21.960Z,976.86
2019-01-15T09:30:21.959Z,976.87
2019-01-15T09:31:23.776Z,976.89
2019-01-15T09:32:22.041Z,976.87
2019-01-15T09:33:23.776Z,976.83
2019-01-15T09:34:22.139Z,976.88
2019-01-15T09:35:22.784Z,976.90
2019-01-15T09:36:22.216Z,976.90
2019-01-15T09:37:22.243Z,976.90
2019-01-15T09:38:22.286Z,976.93
2019-01-15T09:39:22.335Z,976.89
2019-01-15T09:40:22.394Z,976.93
2019-01-15T09:41:22.414Z,976.89
2019-01-15T09:42:24.277Z,976.88
2019-01-15T09:43:22.492Z,976.86
2019-01-15T09:44:22.533Z,976.84
2019-01-15T09:45:23.276Z,976.84
2019-01-15T09:46:22.623Z,976.81
2019-01-15T09:47:22.659Z,976.80
2019-01-15T09:48:22.695Z,976.76
2019-01-15T09:49:22.781Z,976.73
2019-01-15T09:50:22.797Z,976.71
2019-01-15T09:51:22.820Z,976.73
2019-01-15T09:52:24.127Z,976.72
2019-01-15T09:53:22.905Z,976.69
2019-01-15T09:54:23.775Z,976.67
2019-01-15T09:55:23.014Z,976.65
2019-01-15T09:56:23.776Z,976.63
2019-01-15T09:57:23.065Z,976.64
2019-01-15T09:58:23.817Z,976.66
2019-01-15T09:59:23.161Z,976.62
2019-01-15T10:00:23.214Z,976.63
2019-01-15T10:01:23.231Z,976.63
2019-01-15T10:02:24.052Z,976.63
2019-01-15T10:03:23.372Z,976.57
2019-01-15T10:04:23.370Z,976.61
2019-01-15T10:05:23.416Z,976.60
2019-01-15T10:06:23.463Z,976.58
2019-01-15T10:07:23.530Z,976.63
2019-01-15T10:08:23.525Z,976.64
2019-01-15T10:09:23.566Z,976.68
2019-01-15T10:10:23.637Z,976.68
2019-01-15T10:11:23.659Z,976.67
2019-01-15T10:12:23.690Z,976.69
2019-01-15T10:13:23.767Z,976.67
2019-01-15T10:14:23.775Z,976.67
2019-01-15T10:15:23.818Z,976.61
2019-01-15T10:16:23.902Z,976.61
2019-01-15T10:17:23.898Z,976.60
2019-01-15T10:18:24.775Z,976.63
2019-01-15T10:19:23.984Z,976.62
2019-01-15T10:20:24.029Z,976.64
2019-01-15T10:21:24.083Z,976.66
2019-01-15T10:22:24.117Z,976.67
2019-01-15T10:23:24.177Z,976.65
2019-01-15T10:24:24.201Z,976.67
2019-01-15T10:25:24.235Z,976.66
2019-01-15T10:26:24.775Z,976.66
2019-01-15T10:27:24.337Z,976.65
2019-01-15T10:28:24.364Z,976.64
2019-01-15T10:29:24.784Z,976.67
2019-01-15T10:30:24.453Z,976.65
2019-01-15T10:31:24.491Z,976.62
2019-01-15T10:32:24.548Z,976.63
2019-01-15T10:33:25.275Z,976.61
2019-01-15T10:34:24.615Z,976.58
2019-01-15T10:35:24.665Z,976.57
2019-01-15T10:36:24.727Z,976.54
2019-01-15T10:37:24.758Z,976.60
2019-01-15T10:38:24.782Z,976.61
2019-01-15T10:39:24.826Z,976.60
2019-01-15T10:40:24.872Z,976.66
2019-01-15T10:41:24.914Z,976.60
2019-01-15T10:42:24.983Z,976.58
2019-01-15T10:43:25.024Z,976.55
2019-01-15T10:44:25.043Z,976.54
2019-01-15T10:45:25.088Z,976.56
2019-01-15T10:46:25.134Z,976.56
2019-01-15T10:47:25.198Z,976.55
2019-01-15T10:48:25.251Z,976.58
2019-01-15T10:49:25.290Z,976.53
2019-01-15T10:50:25.340Z,976.48
2019-01-15T10:51:25.373Z,976.51
2019-01-15T10:52:26.755Z,976.52
2019-01-15T10:53:25.613Z,976.49
2019-01-15T10:54:25.520Z,976.50
2019-01-15T10:55:25.556Z,976.55
2019-01-15T10:56:25.606Z,976.48
2019-01-15T10:57:25.652Z,976.47
2019-01-15T10:58:25.724Z,976.50
2019-01-15T10:59:25.752Z,976.50
2019-01-15T11:00:26.777Z,976.50
2019-01-15T11:01:25.838Z,976.54
2019-01-15T11:02:25.887Z,976.52
2019-01-15T11:03:25.974Z,976.56
2019-01-15T11:04:26.003Z,976.57
2019-01-15T11:05:26.052Z,976.55
2019-01-15T11:06:26.074Z,976.54
2019-01-15T11:07:26.778Z,976.54
2019-01-15T11:08:26.195Z,976.54
2019-01-15T11:09:26.241Z,976.58
2019-01-15T11:10:26.306Z,976.59
2019-01-15T11:11:26.779Z,976.60
2019-01-15T11:12:26.377Z,976.57
2019-01-15T11:13:26.407Z,976.53
2019-01-15T11:14:26.464Z,976.52
2019-01-15T11:15:26.490Z,976.52
2019-01-15T11:16:26.538Z,976.57
2019-01-15T11:17:26.591Z,976.59
2019-01-15T11:18:26.629Z,976.55
2019-01-15T11:19:27.279Z,976.56
2019-01-15T11:20:27.297Z,976.56
2019-01-15T11:21:26.763Z,976.50
2019-01-15T11:22:26.818Z,976.55
2019-01-15T11:23:26.859Z,976.53
2019-01-15T11:24:27.583Z,976.51
2019-01-15T11:25:26.950Z,976.45
2019-01-15T11:26:27.780Z,976.46
2019-01-15T11:27:27.044Z,976.46
2019-01-15T11:28:27.084Z,976.45
2019-01-15T11:29:27.174Z,976.47
2019-01-15T11:30:27.190Z,976.44
2019-01-15T11:31:27.237Z,976.41
2019-01-15T11:32:27.782Z,976.43
2019-01-15T11:33:27.781Z,976.35
2019-01-15T11:34:27.392Z,976.39
2019-01-15T11:35:27.424Z,976.35
2019-01-15T11:36:27.454Z,976.33
2019-01-15T11:37:28.292Z,976.30
2019-01-15T11:38:27.544Z,976.35
2019-01-15T11:39:27.620Z,976.36
2019-01-15T11:40:27.653Z,976.35
2019-01-15T11:41:27.689Z,976.34
2019-01-15T11:42:27.801Z,976.35
2019-01-15T11:43:27.793Z,976.34
2019-01-15T11:44:28.782Z,976.37
2019-01-15T11:45:27.890Z,976.32
2019-01-15T11:46:27.908Z,976.30
2019-01-15T11:47:27.959Z,976.28
2019-01-15T11:48:28.786Z,976.23
2019-01-15T11:49:28.048Z,976.23
2019-01-15T11:50:28.116Z,976.23
2019-01-15T11:51:28.139Z,976.23
2019-01-15T11:52:29.284Z,976.24
2019-01-15T11:53:28.784Z,976.19
2019-01-15T11:54:28.277Z,976.19
2019-01-15T11:55:28.347Z,976.17
2019-01-15T11:56:28.374Z,976.17
2019-01-15T11:57:28.410Z,976.16
2019-01-15T11:58:28.458Z,976.18
2019-01-15T11:59:28.514Z,976.15
2019-01-15T12:00:28.644Z,976.14
2019-01-15T12:01:28.594Z,976.12
2019-01-15T12:02:29.317Z,976.15
2019-01-15T12:03:28.685Z,976.11
2019-01-15T12:04:28.730Z,976.15
2019-01-15T12:05:28.793Z,976.18
2019-01-15T12:06:28.849Z,976.18
2019-01-15T12:07:28.891Z,976.17
2019-01-15T12:08:28.913Z,976.14
2019-01-15T12:09:28.960Z,976.16
2019-01-15T12:10:29.785Z,976.11
2019-01-15T12:11:29.064Z,976.12
2019-01-15T12:12:29.095Z,976.13
2019-01-15T12:13:29.138Z,976.17
2019-01-15T12:14:29.175Z,976.14
2019-01-15T12:15:29.243Z,976.10
2019-01-15T12:16:29.813Z,976.13
2019-01-15T12:17:29.323Z,976.10
2019-01-15T12:18:29.353Z,976.07
2019-01-15T12:19:29.397Z,976.07
2019-01-15T12:20:29.442Z,976.11
2019-01-15T12:21:29.509Z,976.07
2019-01-15T12:22:29.531Z,976.07
2019-01-15T12:23:29.584Z,976.04
2019-01-15T12:24:29.628Z,976.05
2019-01-15T12:25:29.663Z,976.02
2019-01-15T12:26:29.733Z,976.04
2019-01-15T12:27:29.771Z,976.02
2019-01-15T12:28:29.795Z,976.05
2019-01-15T12:29:29.848Z,975.99